createdAt,value
2022-11-06T00:02:07.853Z,98316.06
2022-11-06T00:06:59.874Z,98311.72
2022-11-06T00:11:53.617Z,98305.50
2022-11-06T00:16:47.788Z,98301.16
2022-11-06T00:21:39.686Z,98292.72
2022-11-06T00:26:32.491Z,98292.72
2022-11-06T00:31:28.641Z,98282.63
2022-11-06T00:36:22.379Z,98289.63
2022-11-06T00:41:16.344Z,98283.91
2022-11-06T00:46:10.707Z,98284.34
2022-11-06T00:51:04.327Z,98274.63
2022-11-06T00:55:56.427Z,98285.16
2022-11-06T01:00:48.253Z,98277.09
2022-11-06T01:05:42.145Z,98265.13
2022-11-06T01:10:33.798Z,98255.03
2022-11-06T01:15:25.375Z,98255.28
2022-11-06T01:20:17.102Z,98237.69
2022-11-06T01:25:09.271Z,98233.09
2022-11-06T01:30:01.325Z,98229.34
2022-11-06T01:34:53.034Z,98215.31
2022-11-06T01:39:44.937Z,98219.50
2022-11-06T01:45:16.774Z,98211.19
2022-11-06T01:50:10.356Z,98201.69
2022-11-06T01:55:20.093Z,98196.28
2022-11-06T02:00:12.507Z,98190.56
2022-11-06T02:05:04.603Z,98182.22
2022-11-06T02:09:56.362Z,98176.03
2022-11-06T02:15:26.166Z,98174.38
2022-11-06T02:20:54.176Z,98174.25
2022-11-06T02:25:48.787Z,98167.56
2022-11-06T02:30:45.960Z,98164.97
2022-11-06T02:35:56.296Z,98154.41
2022-11-06T02:40:55.310Z,98146.78
2022-11-06T02:46:12.908Z,98138.72
2022-11-06T02:51:06.204Z,98132.16
2022-11-06T02:56:04.781Z,98141.88
2022-11-06T03:01:06.685Z,98124.66
2022-11-06T03:06:02.886Z,98118.47
2022-11-06T03:11:14.807Z,98107.69
2022-11-06T03:16:29.518Z,98098.19
2022-11-06T03:21:56.572Z,98088.81
2022-11-06T03:26:53.053Z,98085.75
2022-11-06T03:31:52.623Z,98071.56
2022-11-06T03:36:51.145Z,98076.94
2022-11-06T03:41:59.374Z,98062.31
2022-11-06T03:46:58.318Z,98055.53
2022-11-06T03:51:58.600Z,98042.16
2022-11-06T03:57:03.670Z,98031.03
2022-11-06T04:01:58.990Z,98023.06
2022-11-06T04:06:59.738Z,98023.53
2022-11-06T04:12:10.595Z,98015.47
2022-11-06T04:17:07.429Z,98002.22
2022-11-06T04:22:25.058Z,97983.00
2022-11-06T04:28:02.550Z,97966.06
2022-11-06T04:33:16.862Z,97963.25
2022-11-06T04:38:27.926Z,97988.81
2022-11-06T04:43:45.853Z,97981.22
2022-11-06T04:48:39.185Z,97974.97
2022-11-06T04:53:32.805Z,97971.47
2022-11-06T04:58:24.345Z,97974.75
2022-11-06T05:03:17.116Z,97971.84
2022-11-06T05:08:16.988Z,97968.91
2022-11-06T05:13:08.801Z,97967.19
2022-11-06T05:18:00.431Z,97960.56
2022-11-06T05:22:58.096Z,97954.47
2022-11-06T05:27:49.666Z,97959.41
2022-11-06T05:32:41.441Z,97950.03
2022-11-06T05:37:33.018Z,97955.53
2022-11-06T05:42:24.620Z,97948.84
2022-11-06T05:47:16.154Z,97948.16
2022-11-06T05:52:07.904Z,97946.66
2022-11-06T05:56:59.626Z,97939.75
2022-11-06T06:01:51.513Z,97920.44
2022-11-06T06:06:43.385Z,97903.44
2022-11-06T06:11:35.076Z,97898.66
2022-11-06T06:16:26.666Z,97869.84
2022-11-06T06:21:18.284Z,97854.75
2022-11-06T06:26:10.067Z,97854.97
2022-11-06T06:31:06.029Z,97854.97
2022-11-06T06:35:57.601Z,97841.19
2022-11-06T06:40:49.368Z,97836.03
2022-11-06T06:45:41.729Z,97828.19
2022-11-06T06:50:33.496Z,97814.97
2022-11-06T06:55:25.911Z,97819.78
2022-11-06T07:00:17.677Z,97803.03
2022-11-06T07:05:09.580Z,97797.53
2022-11-06T07:10:01.166Z,97787.00
2022-11-06T07:14:52.809Z,97771.34
2022-11-06T07:19:44.397Z,97782.91
2022-11-06T07:24:36.119Z,97783.75
2022-11-06T07:29:27.810Z,97789.94
2022-11-06T07:34:19.456Z,97789.94
2022-11-06T07:39:11.072Z,97790.28
2022-11-06T07:44:02.686Z,97807.59
2022-11-06T07:48:54.844Z,97797.78
2022-11-06T07:53:46.518Z,97779.34
2022-11-06T07:58:38.780Z,97797.38
2022-11-06T08:03:30.619Z,97795.09
2022-11-06T08:08:22.368Z,97776.59
2022-11-06T08:13:18.140Z,97764.88
2022-11-06T08:18:11.484Z,97774.09
2022-11-06T08:23:05.294Z,97760.72
2022-11-06T08:28:01.661Z,97757.41
2022-11-06T08:32:53.857Z,97747.28
2022-11-06T08:37:45.567Z,97744.75
2022-11-06T08:42:37.381Z,97733.91
2022-11-06T08:47:28.932Z,97732.69
2022-11-06T08:52:20.541Z,97725.28
2022-11-06T08:57:12.093Z,97707.25
2022-11-06T09:02:03.922Z,97722.31
2022-11-06T09:06:57.771Z,97711.91
2022-11-06T09:11:49.488Z,97702.00
2022-11-06T09:16:41.070Z,97705.66
2022-11-06T09:21:32.841Z,97706.63
2022-11-06T09:26:24.435Z,97677.94
2022-11-06T09:31:16.032Z,97682.41
2022-11-06T09:36:08.116Z,97672.78
2022-11-06T09:41:02.249Z,97672.63
2022-11-06T09:45:55.359Z,97652.31
2022-11-06T09:50:57.030Z,97661.63
2022-11-06T09:55:49.700Z,97664.38
2022-11-06T10:00:42.477Z,97655.47
2022-11-06T10:05:37.111Z,97654.66
2022-11-06T10:10:46.133Z,97659.47
2022-11-06T10:16:03.543Z,97668.59
2022-11-06T10:21:08.454Z,97662.91
2022-11-06T10:26:19.020Z,97644.50
2022-11-06T10:31:30.144Z,97626.13
2022-11-06T10:36:29.509Z,97624.03
2022-11-06T10:41:29.444Z,97605.41
2022-11-06T10:46:35.282Z,97615.47
2022-11-06T10:51:56.436Z,97596.69
2022-11-06T10:56:51.210Z,97603.22
2022-11-06T11:01:43.104Z,97587.34
2022-11-06T11:06:34.845Z,97579.41
2022-11-06T11:11:28.499Z,97556.47
2022-11-06T11:16:23.617Z,97549.75
2022-11-06T11:21:18.220Z,97541.38
2022-11-06T11:26:24.244Z,97528.97
2022-11-06T11:31:18.141Z,97509.78
2022-11-06T11:36:10.293Z,97512.75
2022-11-06T11:41:12.825Z,97499.78
2022-11-06T11:46:19.181Z,97503.88
2022-11-06T11:51:37.729Z,97482.22
2022-11-06T11:56:57.735Z,97473.81
2022-11-06T12:01:42.240Z,97474.09
2022-11-06T12:06:33.968Z,97470.56
2022-11-06T12:11:29.713Z,97474.91
2022-11-06T12:16:21.655Z,97467.31
2022-11-06T12:21:28.265Z,97471.66
2022-11-06T12:26:44.107Z,97457.56
2022-11-06T12:31:52.366Z,97445.66
2022-11-06T12:36:59.088Z,97451.59
2022-11-06T12:41:53.326Z,97437.78
2022-11-06T12:47:04.981Z,97425.91
2022-11-06T12:51:56.537Z,97406.09
2022-11-06T12:57:27.045Z,97388.25
2022-11-06T13:02:40.730Z,97384.44
2022-11-06T13:08:28.373Z,97376.03
2022-11-06T13:13:57.068Z,97374.72
2022-11-06T13:18:58.526Z,97356.03
2022-11-06T13:23:58.427Z,97354.41
2022-11-06T13:28:57.096Z,97340.34
2022-11-06T13:33:57.098Z,97341.94
2022-11-06T13:38:56.367Z,97325.97
2022-11-06T13:44:16.228Z,97327.31
2022-11-06T13:49:34.964Z,97336.25
2022-11-06T13:54:29.582Z,97322.44
2022-11-06T13:59:48.573Z,97323.78
2022-11-06T14:05:12.382Z,97322.97
2022-11-06T14:10:05.621Z,97325.16
2022-11-06T14:15:39.038Z,97310.78
2022-11-06T14:20:37.098Z,97321.63
2022-11-06T14:25:28.840Z,97318.63
2022-11-06T14:30:57.656Z,97322.69
2022-11-06T14:35:42.458Z,97316.75
2022-11-06T14:40:34.128Z,97307.25
2022-11-06T14:45:26.898Z,97307.50
2022-11-06T14:50:18.443Z,97303.47
2022-11-06T14:55:25.788Z,97312.63
2022-11-06T15:00:56.336Z,97313.19
2022-11-06T15:05:52.367Z,97309.44
2022-11-06T15:10:44.965Z,97314.84
2022-11-06T15:15:41.263Z,97322.69
2022-11-06T15:20:33.733Z,97312.94
2022-11-06T15:25:28.053Z,97310.25
2022-11-06T15:30:20.815Z,97316.75
2022-11-06T15:35:19.417Z,97321.91
2022-11-06T15:40:24.446Z,97325.16
2022-11-06T15:45:16.146Z,97314.88
2022-11-06T15:50:13.822Z,97318.94
2022-11-06T15:55:06.647Z,97323.81
2022-11-06T16:00:21.963Z,97317.31
2022-11-06T16:05:13.658Z,97329.75
2022-11-06T16:10:05.959Z,97327.06
2022-11-06T16:14:57.632Z,97315.16
2022-11-06T16:19:51.009Z,97307.03
2022-11-06T16:24:45.667Z,97307.06
2022-11-06T16:29:38.451Z,97307.56
2022-11-06T16:34:44.478Z,97304.31
2022-11-06T16:39:49.975Z,97304.59
2022-11-06T16:44:42.076Z,97296.47
2022-11-06T16:49:35.903Z,97293.78
2022-11-06T16:54:30.967Z,97295.66
2022-11-06T16:59:26.683Z,97300.75
2022-11-06T17:04:21.254Z,97306.97
2022-11-06T17:09:34.044Z,97305.28
2022-11-06T17:14:25.934Z,97312.03
2022-11-06T17:19:21.874Z,97311.75
2022-11-06T17:29:25.406Z,97327.09
2022-11-06T17:34:17.422Z,97338.69
2022-11-06T17:39:09.178Z,97344.09
2022-11-06T17:44:06.086Z,97340.88
2022-11-06T17:48:57.795Z,97335.47
2022-11-06T17:53:49.575Z,97340.34
2022-11-06T17:58:41.293Z,97333.28
2022-11-06T18:03:36.469Z,97343.56
2022-11-06T18:08:28.574Z,97350.84
2022-11-06T18:13:20.190Z,97348.66
2022-11-06T18:18:12.142Z,97346.19
2022-11-06T18:23:03.932Z,97348.63
2022-11-06T18:27:59.507Z,97358.03
2022-11-06T18:32:54.098Z,97356.69
2022-11-06T18:37:45.682Z,97343.47
2022-11-06T18:42:37.364Z,97356.38
2022-11-06T18:47:29.036Z,97345.84
2022-11-06T18:52:44.358Z,97349.91
2022-11-06T18:57:32.306Z,97362.31
2022-11-06T19:02:24.533Z,97362.56
2022-11-06T19:07:16.446Z,97368.53
2022-11-06T19:12:08.172Z,97369.59
2022-11-06T19:16:59.743Z,97372.56
2022-11-06T19:21:51.390Z,97381.75
2022-11-06T19:26:43.092Z,97389.84
2022-11-06T19:31:37.091Z,97402.81
2022-11-06T19:36:32.283Z,97396.63
2022-11-06T19:41:24.391Z,97390.97
2022-11-06T19:46:25.090Z,97399.06
2022-11-06T19:51:20.576Z,97395.56
2022-11-06T19:56:16.675Z,97401.25
2022-11-06T20:01:13.230Z,97390.44
2022-11-06T20:06:08.012Z,97403.97
2022-11-06T20:11:14.044Z,97387.50
2022-11-06T20:16:09.596Z,97394.50
2022-11-06T20:21:03.750Z,97385.56
2022-11-06T20:25:55.686Z,97386.09
2022-11-06T20:30:48.069Z,97395.81
2022-11-06T20:35:39.872Z,97385.78
2022-11-06T20:40:34.572Z,97393.03
2022-11-06T20:45:26.818Z,97403.53
2022-11-06T20:50:18.592Z,97405.66
2022-11-06T20:55:10.405Z,97407.53
2022-11-06T21:00:02.297Z,97412.63
2022-11-06T21:04:54.080Z,97406.94
2022-11-06T21:09:45.771Z,97406.66
2022-11-06T21:14:37.615Z,97411.97
2022-11-06T21:19:30.092Z,97428.75
2022-11-06T21:24:22.107Z,97431.13
2022-11-06T21:29:13.817Z,97427.09
2022-11-06T21:34:05.888Z,97434.59
2022-11-06T21:39:01.135Z,97442.16
2022-11-06T21:43:52.902Z,97448.34
2022-11-06T21:48:47.320Z,97457.56
2022-11-06T21:53:58.648Z,97454.63
2022-11-06T21:58:51.717Z,97443.81
2022-11-06T22:03:43.420Z,97461.91
2022-11-06T22:08:37.069Z,97457.03
2022-11-06T22:13:29.693Z,97455.38
2022-11-06T22:18:21.396Z,97452.41
2022-11-06T22:23:13.460Z,97472.34
2022-11-06T22:28:05.505Z,97479.88
2022-11-06T22:32:57.176Z,97472.06
2022-11-06T22:37:48.778Z,97485.53
2022-11-06T22:42:40.500Z,97476.69
2022-11-06T22:47:32.301Z,97486.72
2022-11-06T22:52:23.936Z,97482.66
2022-11-06T22:57:15.527Z,97488.66
2022-11-06T23:02:07.236Z,97493.78
2022-11-06T23:06:59.337Z,97485.44
2022-11-06T23:11:50.967Z,97491.91
2022-11-06T23:16:57.413Z,97495.91
2022-11-06T23:21:49.130Z,97486.19
2022-11-06T23:26:43.193Z,97499.44
2022-11-06T23:31:35.195Z,97491.59
2022-11-06T23:36:27.035Z,97488.56
2022-11-06T23:41:37.383Z,97504.50
2022-11-06T23:46:32.120Z,97494.81
2022-11-06T23:51:25.497Z,97505.53
2022-11-06T23:56:17.243Z,97496.34
